Language selection

Features

My Weather Profile Weather Topics  | 

Juan de Fuca Strait - central strait: Past 24 Hour Conditions

 

Halibut Bank - 46146

09:00 PM PST 06 December 2019Buoy position: 49.34N 123.72W
Disclaimer

This table is a summary of hourly weather conditions for the past 24 hours.
Please note that these observations might not always be representative of weather conditions over their associated marine area.

Date / Time
(PST)
Wind(knots) Wave height(m) Wave period(s) Pressure(kPa) Air tempC) Water tempC)
06 December 2019
21:00 SE 12 gust 16 0.3 2.0 100.9 8 8
20:00 SE 16 gust 17 0.3 2.0 100.8 9 8
19:00 SE 8 gust 10 0.3 2.0 100.9 8 9
18:00 ESE 10 gust 12 0.3 3.0 100.9 8 8
17:00 ESE 10 gust 12 0.2 3.0 100.9 8 8
16:00 ESE 12 gust 12 0.2 2.0 101.0 8 8
15:00 SE 12 gust 13 0.2 2.0 101.0 8 8
14:00 ESE 8 gust 10 0.1 6.0 101.0 8 8
13:00 ESE 8 gust 8 0.1 6.0 101.0 8 8
12:00 E 4 gust 4 0.1 5.0 101.2 7 8
11:00 ESE 4 gust 6 0.1 3.0 101.3 7 8
10:00 SE 2 gust 4 0.1 6.0 101.3 7 8
9:00 NW 2 gust 4 0.1 3.0 101.3 7 8
8:00 W 4 gust 4 0.1 3.0 101.4 7 8
7:00 W 6 gust 8 0.1 5.0 101.4 7 8
6:00 SSW 8 gust 10 0.1 2.0 101.4 7 8
5:00 SW 2 gust 4 0.1 2.0 101.4 7 8
4:00 E 4 gust 6 0.2 3.0 101.4 7 8
3:00 SSE 10 gust 12 0.2 3.0 101.4 7 8
2:00 E 6 gust 8 0.3 3.0 101.5 7 8
1:00 E 12 gust 16 0.4 3.0 101.5 7 8
0:00 ESE 12 gust 16 0.2 3.0 101.6 7 8
05 December 2019
23:00 E 8 gust 10 0.2 3.0 101.6 8 8
22:00 E 12 gust 13 0.2 2.0 101.6 8 8
21:00 N/A N/A N/A N/A N/A N/A

Zoom-in to make a selection

Map of Pacific - Georgia Basin marine weather areas Sentry Shoal - 46131 Halibut Bank - 46146 La Perouse Bank - 46206 Discovery Island Esquimalt Harbour Kelp Reefs Malahat Race Rocks Lightstation Saturna Island Sheringham Point University of Victoria Victoria Gonzales Victoria Int'l Airport Ballenas Islands Campbell River Airport Comox Airport Entrance Island Fanny Island Nanaimo Airport Sisters Islets Estevan Point Port Alberni Tofino Airport Grief Point Howe Sound - Pam Rocks Powell River Airport Sechelt Squamish Airport Point Atkinson Sand Heads Lightstation Tsawwassen Ferry Terminal Vancouver Int'l Airport Vancouver Harbour West Vancouver
Legend:
buoy Buoy
land station Land Station

Pacific - Georgia Basin Area

Another Region

What we are doing

Date modified: